Time;durP1;ratioP1;P1;durP2;ratioP2;P2;SDS_P1;SDS_P2;PMS_P1;PMS_P2;Temp;Humidity;BMP_temperature;BMP_pressure;BME280_temperature;BME280_humidity;BME280_pressure;Samples;Min_cycle;Max_cycle;Signal;HPM_P1;HPM_P2
2022/04/23 00:00:38;;;;;;;25.73;14.52;;;10.30;99.90;;;;;;5086528;28;20127;-73
2022/04/23 00:03:04;;;;;;;22.95;14.38;;;10.20;99.90;;;;;;5081324;28;20165;-73
2022/04/23 00:05:29;;;;;;;26.75;15.77;;;10.20;99.90;;;;;;5084617;28;20028;-74
2022/04/23 00:07:55;;;;;;;26.70;15.50;;;10.20;99.90;;;;;;5086358;28;20559;-75
2022/04/23 00:10:22;;;;;;;27.20;15.20;;;10.10;99.90;;;;;;5084029;28;20098;-74
2022/04/23 00:12:48;;;;;;;29.80;15.90;;;10.10;99.90;;;;;;5087344;28;20044;-69
2022/04/23 00:15:13;;;;;;;25.98;16.33;;;10.00;99.90;;;;;;5087907;28;20381;-73
2022/04/23 00:17:39;;;;;;;28.50;17.02;;;10.00;99.90;;;;;;5087553;28;20094;-74
2022/04/23 00:20:05;;;;;;;29.45;17.17;;;10.00;99.90;;;;;;5087098;28;20039;-76
2022/04/23 00:22:31;;;;;;;30.98;17.40;;;10.00;99.90;;;;;;5086381;28;20077;-74
2022/04/23 00:24:57;;;;;;;30.63;16.83;;;10.00;99.90;;;;;;5070168;28;20111;-71
2022/04/23 00:27:23;;;;;;;29.90;17.35;;;10.00;99.90;;;;;;5083521;28;20039;-72
2022/04/23 00:29:48;;;;;;;30.83;17.15;;;10.00;99.90;;;;;;5087615;28;20055;-72
2022/04/23 00:32:14;;;;;;;31.60;18.15;;;9.90;99.90;;;;;;5085091;28;20181;-76
2022/04/23 00:34:40;;;;;;;28.73;17.33;;;9.90;99.90;;;;;;5087347;28;20048;-74
2022/04/23 00:37:05;;;;;;;30.02;17.75;;;9.90;99.90;;;;;;5088539;28;20032;-73
2022/04/23 00:39:32;;;;;;;31.83;19.08;;;9.80;99.90;;;;;;5085278;28;20036;-72
2022/04/23 00:42:00;;;;;;;33.08;18.45;;;9.80;99.90;;;;;;5082660;28;20062;-69
2022/04/23 00:44:26;;;;;;;30.95;18.45;;;9.80;99.90;;;;;;5086886;28;20111;-74
2022/04/23 00:46:51;;;;;;;31.73;19.15;;;9.80;99.90;;;;;;5087827;28;20178;-74
2022/04/23 00:49:17;;;;;;;37.33;19.80;;;9.80;99.90;;;;;;5086126;28;20043;-80
2022/04/23 00:51:43;;;;;;;35.08;20.17;;;9.80;99.90;;;;;;5087815;28;20048;-72
2022/04/23 00:54:10;;;;;;;31.63;19.33;;;9.80;99.90;;;;;;5084801;28;20052;-72
2022/04/23 00:56:37;;;;;;;35.28;21.17;;;9.80;99.90;;;;;;5085959;28;20044;-70
2022/04/23 00:59:11;;;;;;;33.30;20.52;;;9.70;99.90;;;;;;5087843;28;20036;-73
2022/04/23 01:01:40;;;;;;;35.75;21.20;;;9.80;99.90;;;;;;5086555;28;20097;-78
2022/04/23 01:04:06;;;;;;;38.08;22.25;;;9.80;99.90;;;;;;5083577;28;20062;-72
2022/04/23 01:06:34;;;;;;;39.95;21.63;;;9.80;99.90;;;;;;5088070;28;20048;-75
2022/04/23 01:09:08;;;;;;;39.00;21.83;;;9.80;99.90;;;;;;5087619;28;20159;-71
2022/04/23 01:11:35;;;;;;;37.75;21.50;;;9.80;99.90;;;;;;5084031;28;20501;-72
2022/04/23 01:14:01;;;;;;;35.22;21.40;;;9.80;99.90;;;;;;5087811;28;20044;-75
2022/04/23 01:16:27;;;;;;;42.40;21.92;;;9.80;99.90;;;;;;5086319;28;20093;-71
2022/04/23 01:18:53;;;;;;;37.55;21.63;;;9.80;99.90;;;;;;5068384;28;21409;-73
2022/04/23 01:21:19;;;;;;;37.47;21.52;;;9.80;99.90;;;;;;5086839;28;20086;-72
2022/04/23 01:23:49;;;;;;;35.33;22.27;;;9.80;99.90;;;;;;5087766;28;20032;-72
2022/04/23 01:26:25;;;;;;;36.80;22.00;;;9.80;99.90;;;;;;5085533;28;20037;-75
2022/04/23 01:28:51;;;;;;;40.47;23.52;;;9.80;99.90;;;;;;5086929;28;20457;-75
2022/04/23 01:31:16;;;;;;;40.95;22.15;;;9.80;99.90;;;;;;5087804;28;20115;-77
2022/04/23 01:33:42;;;;;;;40.65;22.58;;;9.80;99.90;;;;;;5080983;28;20071;-77
2022/04/23 01:36:07;;;;;;;38.58;22.95;;;9.80;99.90;;;;;;5084236;28;20085;-72
2022/04/23 01:38:33;;;;;;;41.47;22.92;;;9.70;99.90;;;;;;5089148;28;20055;-75
2022/04/23 01:40:59;;;;;;;40.70;23.70;;;9.70;99.90;;;;;;5083567;28;20079;-75
2022/04/23 01:43:24;;;;;;;41.42;23.17;;;9.70;99.90;;;;;;5085896;28;20050;-73
2022/04/23 01:45:50;;;;;;;42.75;24.13;;;9.70;99.90;;;;;;5090400;28;20040;-75
2022/04/23 01:48:15;;;;;;;41.72;24.30;;;9.60;99.90;;;;;;5090567;28;20068;-72
2022/04/23 01:50:41;;;;;;;39.35;22.90;;;9.60;99.90;;;;;;5082264;28;20075;-72
2022/04/23 01:53:06;;;;;;;38.75;22.98;;;9.60;99.90;;;;;;5089369;28;20423;-73
2022/04/23 01:55:32;;;;;;;44.17;23.40;;;9.60;99.90;;;;;;5082278;28;20098;-75
2022/04/23 01:57:58;;;;;;;39.38;23.25;;;9.60;99.90;;;;;;5089556;28;20399;-74
2022/04/23 02:00:24;;;;;;;41.65;24.55;;;9.60;99.90;;;;;;5090267;28;20044;-73
2022/04/23 02:02:50;;;;;;;46.05;25.15;;;9.60;99.90;;;;;;5081563;28;20040;-79
2022/04/23 02:05:15;;;;;;;37.58;22.30;;;9.60;99.90;;;;;;5086719;28;20079;-72
2022/04/23 02:07:43;;;;;;;41.60;24.55;;;9.50;99.90;;;;;;5083757;28;20067;-74
2022/04/23 02:10:11;;;;;;;42.90;24.33;;;9.50;99.90;;;;;;5089227;28;20044;-74
2022/04/23 02:12:40;;;;;;;43.45;23.77;;;9.50;99.90;;;;;;5071857;28;20036;-76
2022/04/23 02:15:10;;;;;;;39.60;22.77;;;9.40;99.90;;;;;;5076445;28;20040;-76
2022/04/23 02:17:41;;;;;;;37.97;23.33;;;9.40;99.90;;;;;;5083846;28;20090;-75
2022/04/23 02:20:09;;;;;;;44.97;24.20;;;9.40;99.90;;;;;;5080266;28;20068;-77
2022/04/23 02:22:35;;;;;;;41.88;23.55;;;9.40;99.90;;;;;;5087363;28;20244;-75
2022/04/23 02:25:01;;;;;;;41.13;23.80;;;9.40;99.90;;;;;;5071832;28;20040;-76
2022/04/23 02:27:27;;;;;;;43.45;24.58;;;9.30;99.90;;;;;;5072682;28;20483;-75
2022/04/23 02:29:54;;;;;;;40.70;23.20;;;9.30;99.90;;;;;;5085797;28;20044;-77
2022/04/23 02:32:20;;;;;;;42.38;23.02;;;9.30;99.90;;;;;;5082621;28;20514;-73
2022/04/23 02:34:45;;;;;;;44.10;23.30;;;9.20;99.90;;;;;;5089495;28;20044;-73
2022/04/23 02:37:12;;;;;;;37.35;22.55;;;9.30;99.90;;;;;;5064527;28;20364;-75
2022/04/23 02:39:39;;;;;;;40.50;22.98;;;9.30;99.90;;;;;;5089107;28;20044;-77
2022/04/23 02:42:05;;;;;;;39.10;23.33;;;9.20;99.90;;;;;;5089786;28;20036;-76
2022/04/23 02:44:32;;;;;;;40.28;22.38;;;9.20;99.90;;;;;;5088790;28;20028;-76
2022/04/23 02:46:57;;;;;;;39.88;22.70;;;9.20;99.90;;;;;;5086540;28;20433;-78
2022/04/23 02:49:23;;;;;;;38.60;22.63;;;9.20;99.90;;;;;;5075927;28;20044;-73
2022/04/23 02:51:50;;;;;;;39.65;22.85;;;9.20;99.90;;;;;;5090415;28;20046;-76
2022/04/23 02:54:15;;;;;;;42.55;23.42;;;9.20;99.90;;;;;;5089093;28;20043;-77
2022/04/23 02:56:41;;;;;;;38.00;22.15;;;9.20;99.90;;;;;;5089768;28;20093;-76
2022/04/23 02:59:06;;;;;;;36.42;21.55;;;9.20;99.90;;;;;;5085654;28;20036;-74
2022/04/23 03:01:34;;;;;;;36.22;21.58;;;9.20;99.90;;;;;;5084704;28;20047;-77
2022/04/23 03:04:00;;;;;;;38.80;21.75;;;9.20;99.90;;;;;;5068439;28;20067;-74
2022/04/23 03:06:29;;;;;;;39.42;21.65;;;9.20;99.90;;;;;;5085465;28;20122;-73
2022/04/23 03:09:02;;;;;;;35.75;21.08;;;9.20;99.90;;;;;;5081505;28;20047;-79
2022/04/23 03:11:29;;;;;;;35.85;20.55;;;9.20;99.90;;;;;;5088379;28;20088;-79
2022/04/23 03:13:55;;;;;;;36.58;20.50;;;9.20;99.90;;;;;;5082545;28;20131;-75
2022/04/23 03:16:21;;;;;;;36.92;20.63;;;9.20;99.90;;;;;;5089460;28;20474;-78
2022/04/23 03:18:46;;;;;;;36.95;20.25;;;9.10;99.90;;;;;;5090455;28;20039;-83
2022/04/23 03:21:12;;;;;;;36.92;19.55;;;9.10;99.90;;;;;;5089564;28;20406;-75
2022/04/23 03:23:37;;;;;;;35.72;19.70;;;9.10;99.90;;;;;;5086229;28;20031;-76
2022/04/23 03:26:03;;;;;;;36.03;20.13;;;9.10;99.90;;;;;;5090591;28;20465;-80
2022/04/23 03:28:29;;;;;;;32.53;19.33;;;9.10;99.90;;;;;;5088971;28;20079;-76
2022/04/23 03:30:55;;;;;;;33.42;19.88;;;9.10;99.90;;;;;;5075797;28;20074;-77
2022/04/23 03:33:20;;;;;;;35.53;19.65;;;9.10;99.90;;;;;;5086541;28;20078;-74
2022/04/23 03:35:46;;;;;;;37.75;20.10;;;9.10;99.90;;;;;;5089890;28;20051;-72
2022/04/23 03:38:11;;;;;;;34.22;19.02;;;9.10;99.90;;;;;;5085552;28;20136;-75
2022/04/23 03:40:38;;;;;;;35.80;20.38;;;9.20;99.90;;;;;;5085622;28;20040;-73
2022/04/23 03:43:03;;;;;;;37.63;19.65;;;9.20;99.90;;;;;;5086662;28;20055;-74
2022/04/23 03:45:31;;;;;;;36.55;20.90;;;9.10;99.90;;;;;;5075145;28;20452;-78
2022/04/23 03:47:57;;;;;;;34.60;20.63;;;9.10;99.90;;;;;;5070107;28;20098;-74
2022/04/23 03:50:22;;;;;;;36.55;20.35;;;9.10;99.90;;;;;;5075374;28;20041;-77
2022/04/23 03:52:49;;;;;;;38.50;20.08;;;9.10;99.90;;;;;;5088075;28;20577;-75
2022/04/23 03:55:15;;;;;;;35.85;20.73;;;9.10;99.90;;;;;;5088904;28;20403;-75
2022/04/23 03:57:48;;;;;;;38.47;19.77;;;9.10;99.90;;;;;;5085996;28;20044;-76
2022/04/23 04:00:15;;;;;;;32.13;19.30;;;9.10;99.90;;;;;;5082103;28;20036;-77
2022/04/23 04:02:42;;;;;;;33.55;20.52;;;9.00;99.90;;;;;;5088788;28;20039;-76
2022/04/23 04:05:09;;;;;;;39.00;21.08;;;9.10;99.90;;;;;;5086564;28;20036;-75
2022/04/23 04:07:34;;;;;;;38.17;20.55;;;9.10;99.90;;;;;;5088771;28;20064;-75
2022/04/23 04:10:01;;;;;;;36.97;20.45;;;9.00;99.90;;;;;;5087017;28;20071;-74
2022/04/23 04:12:27;;;;;;;35.08;19.95;;;9.10;99.90;;;;;;5086488;28;20174;-77
2022/04/23 04:14:53;;;;;;;33.75;19.27;;;9.10;99.90;;;;;;5071609;28;20032;-78
2022/04/23 04:17:18;;;;;;;35.58;20.17;;;9.00;99.90;;;;;;5089133;28;20440;-78
2022/04/23 04:19:44;;;;;;;39.35;20.25;;;9.00;99.90;;;;;;5087708;28;20479;-79
2022/04/23 04:22:10;;;;;;;31.60;18.65;;;9.00;99.90;;;;;;5082530;28;20116;-75
2022/04/23 04:24:35;;;;;;;33.25;19.25;;;8.90;99.90;;;;;;5089031;28;20032;-71
2022/04/23 04:27:01;;;;;;;34.63;19.85;;;8.90;99.90;;;;;;5088632;28;20043;-75
2022/04/23 04:29:28;;;;;;;36.25;19.10;;;8.90;99.90;;;;;;5087293;28;20216;-77
2022/04/23 04:31:54;;;;;;;35.15;19.50;;;8.80;99.90;;;;;;5086210;28;20048;-80
2022/04/23 04:34:30;;;;;;;35.92;20.20;;;8.80;99.90;;;;;;5088064;28;20131;-76
2022/04/23 04:37:07;;;;;;;33.28;19.48;;;8.80;99.90;;;;;;5084837;28;20518;-74
2022/04/23 04:39:34;;;;;;;33.72;19.20;;;8.80;99.90;;;;;;5084030;28;20036;-81
2022/04/23 04:42:00;;;;;;;34.85;18.65;;;8.80;99.90;;;;;;5086650;28;20044;-78
2022/04/23 04:44:26;;;;;;;32.58;19.25;;;8.70;99.90;;;;;;5087632;28;20040;-75
2022/04/23 04:46:52;;;;;;;32.97;19.17;;;8.80;99.90;;;;;;5087734;28;20055;-74
2022/04/23 04:49:18;;;;;;;35.70;19.50;;;8.80;99.90;;;;;;5086296;28;20028;-73
2022/04/23 04:51:44;;;;;;;33.72;18.25;;;8.70;99.90;;;;;;5085827;28;20512;-75
2022/04/23 04:54:09;;;;;;;32.83;18.30;;;8.80;99.90;;;;;;5069800;28;20498;-73
2022/04/23 04:56:35;;;;;;;31.77;18.38;;;8.80;99.90;;;;;;5071781;28;20479;-77
2022/04/23 04:59:01;;;;;;;30.88;18.15;;;8.80;99.90;;;;;;5087856;28;20040;-75
2022/04/23 05:01:27;;;;;;;33.78;18.35;;;8.80;99.90;;;;;;5086364;28;20040;-77
2022/04/23 05:03:54;;;;;;;34.92;18.40;;;8.70;99.90;;;;;;5085577;28;21627;-82
2022/04/23 05:06:20;;;;;;;35.13;19.00;;;8.80;99.90;;;;;;5085697;28;20055;-78
2022/04/23 05:08:45;;;;;;;33.30;17.73;;;8.80;99.90;;;;;;5090058;28;20040;-80
2022/04/23 05:11:11;;;;;;;31.80;17.92;;;8.80;99.90;;;;;;5090064;28;20043;-78
2022/04/23 05:13:38;;;;;;;32.40;18.60;;;8.80;99.90;;;;;;5091267;28;20040;-75
2022/04/23 05:16:06;;;;;;;29.48;17.75;;;8.90;99.90;;;;;;5091753;28;20047;-82
2022/04/23 05:18:32;;;;;;;33.05;18.42;;;8.90;99.90;;;;;;5090123;28;20047;-73
2022/04/23 05:20:57;;;;;;;28.98;17.13;;;8.90;99.90;;;;;;5092288;28;20036;-72
2022/04/23 05:23:23;;;;;;;28.63;16.63;;;8.90;99.90;;;;;;5072638;28;20103;-79
2022/04/23 05:25:49;;;;;;;30.48;16.83;;;9.00;99.90;;;;;;5088639;28;20041;-79
2022/04/23 05:28:14;;;;;;;30.55;17.85;;;9.10;99.90;;;;;;5091076;28;20101;-76
2022/04/23 05:30:40;;;;;;;30.30;17.90;;;9.10;99.90;;;;;;5074308;28;20442;-73
2022/04/23 05:33:06;;;;;;;27.25;16.33;;;9.10;99.90;;;;;;5073159;28;20036;-75
2022/04/23 05:35:31;;;;;;;27.58;17.05;;;9.20;99.90;;;;;;5092643;28;20055;-74
2022/04/23 05:37:57;;;;;;;31.67;16.98;;;9.20;99.90;;;;;;5090857;28;20042;-76
2022/04/23 05:40:22;;;;;;;27.98;16.63;;;9.20;99.90;;;;;;5091349;28;20040;-71
2022/04/23 05:42:48;;;;;;;31.45;17.38;;;9.30;99.90;;;;;;5090328;28;20127;-76
2022/04/23 05:45:13;;;;;;;30.95;16.55;;;9.30;99.90;;;;;;5088120;28;20032;-78
2022/04/23 05:47:41;;;;;;;27.90;16.45;;;9.30;99.90;;;;;;5091029;28;20464;-74
2022/04/23 05:50:08;;;;;;;28.73;16.92;;;9.30;99.90;;;;;;5087662;28;20036;-73
2022/04/23 05:52:40;;;;;;;28.35;17.50;;;9.40;99.90;;;;;;5087657;28;20558;-73
2022/04/23 05:55:07;;;;;;;28.80;16.17;;;9.40;99.90;;;;;;5088049;28;20138;-73
2022/04/23 05:57:32;;;;;;;28.05;16.38;;;9.50;99.90;;;;;;5084414;28;20024;-70
2022/04/23 05:59:58;;;;;;;28.98;17.02;;;9.60;99.90;;;;;;5089458;28;20032;-72
2022/04/23 06:02:23;;;;;;;28.10;16.45;;;9.60;99.90;;;;;;5089408;28;20123;-77
2022/04/23 06:04:49;;;;;;;27.52;16.27;;;9.70;99.90;;;;;;5090930;28;20090;-70
2022/04/23 06:07:16;;;;;;;26.45;16.63;;;9.80;99.90;;;;;;5090977;28;20043;-70
2022/04/23 06:09:42;;;;;;;24.85;15.45;;;9.80;99.90;;;;;;5090434;28;20047;-69
2022/04/23 06:12:08;;;;;;;29.70;16.42;;;9.80;99.90;;;;;;5089391;28;20036;-75
2022/04/23 06:14:33;;;;;;;27.17;16.20;;;9.90;99.90;;;;;;5076804;28;20050;-71
2022/04/23 06:16:59;;;;;;;28.33;17.15;;;9.90;99.90;;;;;;5072209;28;20040;-73
2022/04/23 06:19:24;;;;;;;25.83;16.65;;;9.90;99.90;;;;;;5088676;28;20506;-73
2022/04/23 06:21:50;;;;;;;25.08;15.40;;;9.90;99.90;;;;;;5092413;28;20040;-70
2022/04/23 06:24:16;;;;;;;28.45;16.23;;;9.90;99.90;;;;;;5091996;28;20664;-68
2022/04/23 06:26:41;;;;;;;32.80;16.83;;;9.90;99.90;;;;;;5069557;28;21066;-77
2022/04/23 06:29:07;;;;;;;28.70;16.58;;;10.00;99.90;;;;;;5085484;28;20036;-72
2022/04/23 06:31:32;;;;;;;30.60;17.65;;;10.10;99.90;;;;;;5086290;28;20122;-71
2022/04/23 06:33:58;;;;;;;30.17;16.75;;;10.20;99.90;;;;;;5088925;28;20036;-69
2022/04/23 06:36:23;;;;;;;27.98;16.83;;;10.20;99.90;;;;;;5089979;28;20036;-72
2022/04/23 06:38:49;;;;;;;25.80;15.77;;;10.20;99.90;;;;;;5088789;28;20134;-70
2022/04/23 06:41:15;;;;;;;29.77;16.90;;;10.10;99.90;;;;;;5091156;28;20031;-70
2022/04/23 06:43:40;;;;;;;29.80;17.80;;;10.20;99.90;;;;;;5091528;28;20663;-76
2022/04/23 06:46:05;;;;;;;30.45;17.42;;;10.30;99.90;;;;;;5079727;28;20544;-72
2022/04/23 06:48:31;;;;;;;27.23;16.80;;;10.40;99.90;;;;;;5076217;28;20035;-72
2022/04/23 06:50:56;;;;;;;31.85;18.02;;;10.50;99.90;;;;;;5090020;28;20043;-72
2022/04/23 06:53:22;;;;;;;33.80;18.15;;;10.50;99.90;;;;;;5090895;28;20082;-73
2022/04/23 06:55:47;;;;;;;28.70;17.42;;;10.50;99.90;;;;;;5088279;28;20048;-74
2022/04/23 06:58:15;;;;;;;30.42;18.80;;;10.60;99.90;;;;;;5089331;28;20380;-68
2022/04/23 07:00:41;;;;;;;27.88;17.17;;;10.70;99.90;;;;;;5088482;28;20048;-71
2022/04/23 07:03:07;;;;;;;32.05;19.17;;;10.80;99.90;;;;;;5090027;28;20035;-68
2022/04/23 07:05:32;;;;;;;31.85;18.20;;;10.90;99.90;;;;;;5089409;28;20126;-71
2022/04/23 07:08:01;;;;;;;33.22;18.92;;;10.90;99.90;;;;;;5080646;28;20033;-70
2022/04/23 07:10:28;;;;;;;30.98;18.98;;;11.00;99.90;;;;;;5074239;28;20089;-71
2022/04/23 07:12:55;;;;;;;29.50;18.35;;;11.10;99.90;;;;;;5088250;28;20044;-70
2022/04/23 07:15:22;;;;;;;28.45;18.30;;;11.20;99.90;;;;;;5073711;28;20432;-76
2022/04/23 07:17:48;;;;;;;31.83;18.92;;;11.30;99.90;;;;;;5086335;28;20035;-72
2022/04/23 07:20:14;;;;;;;34.70;19.52;;;11.30;99.90;;;;;;5084874;28;20039;-71
2022/04/23 07:22:39;;;;;;;32.72;19.23;;;11.40;99.90;;;;;;5090174;28;20071;-73
2022/04/23 07:25:10;;;;;;;32.03;19.02;;;11.40;99.90;;;;;;5084626;28;20055;-70
2022/04/23 07:27:35;;;;;;;31.48;19.33;;;11.50;99.90;;;;;;5089950;28;20063;-68
2022/04/23 07:30:01;;;;;;;31.48;18.63;;;11.50;99.90;;;;;;5056128;28;20086;-72
2022/04/23 07:32:26;;;;;;;31.98;17.50;;;11.60;99.90;;;;;;5090016;28;20044;-70
2022/04/23 07:37:56;;;;;;;34.28;19.25;;;11.70;99.90;;;;;;5050063;28;20041;-70
2022/04/23 07:40:22;;;;;;;28.20;17.58;;;11.80;99.90;;;;;;5050837;28;20059;-76
2022/04/23 07:42:48;;;;;;;27.85;18.13;;;11.90;99.90;;;;;;5085772;28;20040;-71
2022/04/23 07:45:14;;;;;;;32.35;19.55;;;11.90;99.90;;;;;;5088030;28;20043;-71
2022/04/23 07:47:39;;;;;;;33.63;18.85;;;12.00;99.90;;;;;;5087610;28;20040;-69
2022/04/23 07:50:05;;;;;;;32.83;18.75;;;12.10;99.90;;;;;;5089031;28;20078;-73
2022/04/23 07:52:31;;;;;;;33.92;18.95;;;12.20;99.90;;;;;;5088760;28;20355;-74
2022/04/23 07:54:56;;;;;;;33.50;18.90;;;12.30;99.90;;;;;;5084994;28;20036;-76
2022/04/23 07:57:23;;;;;;;34.83;18.65;;;12.40;99.90;;;;;;5086498;28;20534;-71
2022/04/23 07:59:49;;;;;;;32.88;17.60;;;12.50;99.90;;;;;;5089012;28;20040;-68
2022/04/23 08:02:15;;;;;;;32.03;19.10;;;12.50;99.90;;;;;;5087476;28;20032;-74
2022/04/23 08:04:41;;;;;;;30.92;18.10;;;12.60;99.90;;;;;;5088834;28;20043;-70
2022/04/23 08:07:07;;;;;;;31.70;19.17;;;12.60;99.90;;;;;;5080286;28;20399;-73
2022/04/23 08:09:39;;;;;;;33.20;19.20;;;12.80;99.90;;;;;;5089192;28;20077;-67
2022/04/23 08:12:09;;;;;;;31.02;17.52;;;12.90;99.90;;;;;;5070948;28;20505;-72
2022/04/23 08:14:35;;;;;;;32.95;18.48;;;13.00;99.90;;;;;;5084144;28;20474;-68
2022/04/23 08:17:01;;;;;;;30.30;17.88;;;13.10;99.90;;;;;;5088064;28;20040;-72
2022/04/23 08:19:27;;;;;;;33.20;18.95;;;13.20;99.90;;;;;;5088310;28;20044;-73
2022/04/23 08:21:52;;;;;;;32.90;18.35;;;13.30;99.90;;;;;;5089088;28;20033;-75
2022/04/23 08:24:19;;;;;;;29.83;17.40;;;13.40;99.90;;;;;;5088933;28;20119;-70
2022/04/23 08:26:45;;;;;;;30.92;17.25;;;13.50;99.90;;;;;;5084299;28;20512;-71
2022/04/23 08:31:55;;;;;;;30.20;17.60;;;13.60;99.90;;;;;;5088940;28;20051;-72
2022/04/23 08:34:21;;;;;;;30.55;16.75;;;13.70;99.90;;;;;;5087659;28;20036;-71
2022/04/23 08:36:49;;;;;;;29.38;16.17;;;13.70;99.90;;;;;;5087213;28;20043;-70
2022/04/23 08:39:16;;;;;;;29.83;17.00;;;13.70;99.90;;;;;;5079542;28;20516;-71
2022/04/23 08:41:44;;;;;;;33.20;16.90;;;13.80;99.90;;;;;;5089522;28;20836;-70
2022/04/23 08:44:10;;;;;;;30.90;16.92;;;13.80;99.90;;;;;;5084001;28;20075;-69
2022/04/23 08:46:39;;;;;;;28.58;15.98;;;13.90;99.90;;;;;;5081542;28;20387;-72
2022/04/23 08:49:13;;;;;;;29.50;15.98;;;13.90;99.90;;;;;;5080378;28;20111;-69
2022/04/23 08:51:41;;;;;;;31.65;17.02;;;13.90;99.90;;;;;;5086870;28;20063;-72
2022/04/23 08:54:12;;;;;;;28.25;16.35;;;13.90;99.90;;;;;;5077796;28;20035;-72
2022/04/23 08:56:42;;;;;;;27.00;16.30;;;14.00;99.90;;;;;;5077400;28;20031;-74
2022/04/23 08:59:11;;;;;;;27.75;16.13;;;14.00;99.90;;;;;;5079992;28;20111;-72
2022/04/23 09:01:38;;;;;;;27.20;17.05;;;14.10;99.90;;;;;;5087254;28;20115;-70
2022/04/23 09:04:07;;;;;;;27.98;16.90;;;14.10;99.90;;;;;;5087884;28;20028;-74
2022/04/23 09:06:38;;;;;;;31.10;16.80;;;14.20;99.90;;;;;;5070146;28;20035;-71
2022/04/23 09:09:17;;;;;;;27.30;16.30;;;14.30;99.90;;;;;;5079523;28;20402;-69
2022/04/23 09:11:51;;;;;;;30.23;16.65;;;14.30;99.90;;;;;;5084034;28;20316;-71
2022/04/23 09:14:28;;;;;;;27.90;16.38;;;14.40;99.90;;;;;;5069697;28;20565;-71
2022/04/23 09:25:36;;;;;;;28.60;18.10;;;14.60;99.90;;;;;;5088133;28;20115;-76
2022/04/23 09:28:26;;;;;;;26.50;17.15;;;14.70;99.90;;;;;;5090984;28;20040;-73
2022/04/23 09:30:56;;;;;;;30.50;17.42;;;14.70;99.90;;;;;;5088577;28;20044;-68
2022/04/23 09:33:29;;;;;;;30.95;17.70;;;14.70;99.90;;;;;;5086129;28;20046;-73
2022/04/23 09:35:57;;;;;;;29.77;17.17;;;14.70;99.90;;;;;;5087270;28;20067;-72
2022/04/23 09:38:23;;;;;;;31.55;17.52;;;14.80;99.90;;;;;;5074410;28;20045;-73
2022/04/23 09:40:54;;;;;;;27.02;17.80;;;15.00;99.90;;;;;;5080196;28;20040;-73
2022/04/23 09:43:28;;;;;;;26.77;17.45;;;15.10;99.90;;;;;;5080677;28;20033;-71
2022/04/23 09:46:08;;;;;;;27.58;17.55;;;15.30;99.90;;;;;;5088492;28;20487;-75
2022/04/23 09:48:35;;;;;;;32.70;19.50;;;15.30;99.90;;;;;;5086725;28;20200;-75
2022/04/23 09:51:01;;;;;;;30.98;19.70;;;15.30;99.90;;;;;;5085331;28;20407;-69
2022/04/23 09:53:28;;;;;;;31.58;19.52;;;15.40;99.90;;;;;;5069987;28;20513;-76
2022/04/23 09:56:05;;;;;;;29.33;18.58;;;15.50;99.90;;;;;;5090633;28;20071;-70
2022/04/23 09:58:32;;;;;;;30.45;19.38;;;15.60;99.90;;;;;;5076197;28;20055;-75
2022/04/23 10:00:59;;;;;;;32.67;18.85;;;15.70;99.90;;;;;;5071902;28;20075;-73
2022/04/23 10:03:32;;;;;;;29.20;18.58;;;15.80;99.90;;;;;;5089677;28;20035;-71
2022/04/23 10:06:02;;;;;;;30.33;19.05;;;15.90;99.90;;;;;;5089863;28;20372;-73
2022/04/23 10:08:30;;;;;;;29.90;18.42;;;16.00;99.90;;;;;;5071891;28;20044;-71
2022/04/23 10:11:28;;;;;;;30.95;19.05;;;16.10;99.90;;;;;;5071511;28;20051;-74
2022/04/23 10:13:59;;;;;;;32.00;19.70;;;15.90;99.90;;;;;;5082065;28;20490;-75
2022/04/23 10:16:25;;;;;;;31.75;19.95;;;15.90;99.90;;;;;;5085264;28;20051;-74
2022/04/23 10:18:53;;;;;;;32.97;19.20;;;15.90;99.90;;;;;;5089578;28;20040;-74
2022/04/23 10:21:25;;;;;;;29.27;18.80;;;15.90;99.90;;;;;;5089745;28;20082;-72
2022/04/23 10:24:16;;;;;;;31.58;20.25;;;15.90;99.90;;;;;;5090925;28;20036;-74
2022/04/23 10:26:47;;;;;;;28.98;19.13;;;16.00;99.90;;;;;;5091073;28;20036;-76
2022/04/23 10:29:15;;;;;;;31.27;19.23;;;16.00;99.90;;;;;;5090713;28;20512;-70
2022/04/23 10:31:41;;;;;;;31.60;19.15;;;16.00;99.90;;;;;;5076536;28;20036;-74
2022/04/23 10:34:33;;;;;;;32.05;19.60;;;16.10;99.90;;;;;;5090682;28;20429;-73
2022/04/23 10:37:14;;;;;;;31.77;19.90;;;16.30;99.90;;;;;;5090354;28;20058;-73
2022/04/23 10:39:42;;;;;;;31.70;20.33;;;16.40;99.90;;;;;;5080189;28;20389;-71
2022/04/23 10:42:14;;;;;;;28.75;19.42;;;16.60;99.90;;;;;;5079493;28;20437;-78
2022/04/23 10:44:42;;;;;;;31.05;19.10;;;16.70;99.90;;;;;;5084762;28;20040;-72
2022/04/23 10:47:30;;;;;;;30.23;19.60;;;16.70;99.90;;;;;;5066837;28;20036;-77
2022/04/23 10:50:25;;;;;;;31.48;20.70;;;16.80;99.90;;;;;;5087994;28;20122;-79
2022/04/23 10:52:53;;;;;;;28.10;18.25;;;16.80;99.90;;;;;;5081658;28;20485;-73
2022/04/23 10:55:18;;;;;;;31.95;19.30;;;16.80;99.90;;;;;;5056410;28;20050;-75
2022/04/23 10:57:54;;;;;;;29.25;18.48;;;16.80;99.90;;;;;;5089873;28;20044;-80
2022/04/23 11:00:22;;;;;;;30.75;18.67;;;16.90;99.90;;;;;;5063343;28;20040;-74
2022/04/23 11:02:54;;;;;;;29.55;18.80;;;16.90;99.70;;;;;;5088780;28;20044;-72
2022/04/23 11:13:49;;;;;;;28.33;19.33;;;17.00;99.90;;;;;;5090287;28;20043;-70
2022/04/23 11:16:19;;;;;;;32.95;18.95;;;17.10;99.90;;;;;;5089790;28;20036;-72
2022/04/23 11:18:48;;;;;;;29.45;19.08;;;17.20;99.90;;;;;;5071765;28;20122;-74
2022/04/23 11:21:23;;;;;;;27.90;18.88;;;17.20;99.90;;;;;;5083463;28;20043;-73
2022/04/23 11:23:49;;;;;;;28.67;18.10;;;17.10;96.60;;;;;;5089750;28;20040;-75
2022/04/23 11:26:17;;;;;;;29.58;18.52;;;17.00;99.90;;;;;;5088756;28;20031;-74
2022/04/23 11:28:44;;;;;;;32.15;19.33;;;17.00;99.90;;;;;;5089806;28;20070;-73
2022/04/23 11:31:15;;;;;;;28.13;18.98;;;16.90;96.60;;;;;;5090157;28;20043;-75
2022/04/23 11:33:54;;;;;;;26.93;17.87;;;16.90;99.90;;;;;;5086255;28;20296;-72
2022/04/23 11:36:28;;;;;;;26.88;17.85;;;17.10;99.90;;;;;;5091017;28;20046;-69
2022/04/23 11:38:58;;;;;;;31.02;19.15;;;17.20;99.90;;;;;;5089224;28;20089;-71
2022/04/23 11:41:47;;;;;;;29.42;18.27;;;17.30;99.50;;;;;;5089294;28;20044;-73
2022/04/23 11:47:05;;;;;;;27.08;17.33;;;17.50;98.10;;;;;;5083207;28;20051;-75
2022/04/23 11:49:31;;;;;;;29.48;18.40;;;17.60;99.50;;;;;;5086466;28;20036;-70
2022/04/23 11:52:03;;;;;;;30.40;18.13;;;17.60;97.90;;;;;;5070232;28;20127;-77
2022/04/23 11:54:36;;;;;;;29.60;18.43;;;17.50;99.50;;;;;;5089656;28;20126;-72
2022/04/23 11:57:09;;;;;;;30.50;17.65;;;17.60;99.70;;;;;;5088504;28;20063;-72
2022/04/23 11:59:43;;;;;;;26.33;16.85;;;17.60;90.00;;;;;;5073532;28;20123;-71
2022/04/23 12:02:19;;;;;;;26.38;16.08;;;17.60;95.40;;;;;;5073663;28;20438;-75
2022/04/23 12:04:46;;;;;;;27.08;17.30;;;17.50;91.20;;;;;;5086199;28;20143;-69
2022/04/23 12:07:12;;;;;;;28.35;17.02;;;17.50;89.20;;;;;;5081205;28;20038;-75
2022/04/23 12:09:49;;;;;;;23.90;17.17;;;17.50;97.80;;;;;;5089438;28;20089;-75
2022/04/23 12:12:19;;;;;;;24.33;17.20;;;17.60;99.20;;;;;;5088755;28;20070;-74
2022/04/23 12:14:52;;;;;;;24.35;16.80;;;17.40;80.10;;;;;;5089394;28;20070;-73
2022/04/23 12:17:31;;;;;;;24.90;17.05;;;17.50;88.60;;;;;;5089701;28;20043;-71
2022/04/23 12:19:59;;;;;;;26.83;16.98;;;17.50;91.50;;;;;;5084992;28;20040;-74
2022/04/23 12:22:30;;;;;;;24.33;16.63;;;17.60;95.40;;;;;;5091833;28;20405;-72
2022/04/23 12:25:07;;;;;;;24.48;16.73;;;17.60;91.50;;;;;;5081767;28;20149;-72
2022/04/23 12:42:11;;;;;;;22.00;13.80;;;18.00;97.00;;;;;;5089436;28;20055;-72
2022/04/23 12:44:46;;;;;;;20.75;13.15;;;18.00;83.80;;;;;;5089044;28;20040;-74
2022/04/23 12:47:14;;;;;;;19.88;12.48;;;18.00;95.20;;;;;;5089261;28;20403;-73
2022/04/23 12:49:55;;;;;;;16.92;11.95;;;18.00;64.70;;;;;;5072476;28;20058;-72
2022/04/23 12:52:21;;;;;;;18.40;13.07;;;18.00;65.70;;;;;;5089641;28;20052;-73
2022/04/23 12:55:25;;;;;;;20.50;12.95;;;17.90;78.90;;;;;;5077410;28;20396;-69
2022/04/23 12:58:08;;;;;;;16.52;11.40;;;18.10;90.90;;;;;;5069322;28;20561;-70
2022/04/23 13:00:41;;;;;;;18.75;11.82;;;18.10;83.20;;;;;;5051448;28;20044;-71
2022/04/23 13:03:34;;;;;;;21.40;12.63;;;18.20;82.70;;;;;;5075938;28;20046;-75
2022/04/23 13:06:00;;;;;;;18.75;11.90;;;18.20;65.90;;;;;;5089030;28;20099;-70
2022/04/23 13:11:27;;;;;;;13.48;10.63;;;18.10;70.40;;;;;;5075742;28;20074;-70
2022/04/23 13:14:00;;;;;;;15.75;10.93;;;18.00;58.30;;;;;;5069466;28;20044;-81
2022/04/23 13:16:31;;;;;;;15.23;10.75;;;18.00;63.80;;;;;;5084212;28;20054;-74
2022/04/23 13:18:58;;;;;;;15.60;11.05;;;18.10;68.50;;;;;;5088817;28;20041;-75